sensor_id;sensor_type;location;lat;lon;timestamp;pressure;altitude;pressure_sealevel;temperature;humidity
64292;BME280;50628;51.008;13.658;2023-06-04T00:02:03;100187.91;;;9.95;100.00
64292;BME280;50628;51.008;13.658;2023-06-04T00:07:05;100185.88;;;9.88;100.00
64292;BME280;50628;51.008;13.658;2023-06-04T00:12:08;100184.22;;;9.74;100.00
64292;BME280;50628;51.008;13.658;2023-06-04T00:17:10;100182.75;;;9.70;100.00
64292;BME280;50628;51.008;13.658;2023-06-04T00:22:12;100179.34;;;9.69;100.00
64292;BME280;50628;51.008;13.658;2023-06-04T00:27:16;100176.75;;;9.57;100.00
64292;BME280;50628;51.008;13.658;2023-06-04T00:32:17;100174.16;;;9.57;100.00
64292;BME280;50628;51.008;13.658;2023-06-04T00:37:20;100178.25;;;9.35;100.00
64292;BME280;50628;51.008;13.658;2023-06-04T00:42:24;100176.38;;;9.24;100.00
64292;BME280;50628;51.008;13.658;2023-06-04T00:47:26;100162.56;;;9.11;100.00
64292;BME280;50628;51.008;13.658;2023-06-04T00:52:28;100165.59;;;9.05;100.00
64292;BME280;50628;51.008;13.658;2023-06-04T00:57:31;100162.34;;;9.01;100.00
64292;BME280;50628;51.008;13.658;2023-06-04T01:02:34;100160.69;;;8.87;100.00
64292;BME280;50628;51.008;13.658;2023-06-04T01:07:37;100170.31;;;8.60;100.00
64292;BME280;50628;51.008;13.658;2023-06-04T01:12:42;100162.63;;;8.71;100.00
64292;BME280;50628;51.008;13.658;2023-06-04T01:17:46;100165.13;;;8.60;100.00
64292;BME280;50628;51.008;13.658;2023-06-04T01:23:05;100170.06;;;8.50;100.00
64292;BME280;50628;51.008;13.658;2023-06-04T01:28:10;100152.53;;;8.54;100.00
64292;BME280;50628;51.008;13.658;2023-06-04T01:33:13;100158.34;;;8.44;100.00
64292;BME280;50628;51.008;13.658;2023-06-04T01:38:15;100157.81;;;8.39;100.00
64292;BME280;50628;51.008;13.658;2023-06-04T01:43:18;100159.28;;;8.29;100.00
64292;BME280;50628;51.008;13.658;2023-06-04T01:48:20;100158.03;;;8.22;100.00
64292;BME280;50628;51.008;13.658;2023-06-04T01:53:22;100154.03;;;8.16;100.00
64292;BME280;50628;51.008;13.658;2023-06-04T01:58:25;100153.94;;;7.91;100.00
64292;BME280;50628;51.008;13.658;2023-06-04T02:03:29;100160.31;;;7.99;100.00
64292;BME280;50628;51.008;13.658;2023-06-04T02:08:37;100160.06;;;7.90;100.00
64292;BME280;50628;51.008;13.658;2023-06-04T02:13:42;100156.97;;;7.97;100.00
64292;BME280;50628;51.008;13.658;2023-06-04T02:18:44;100155.63;;;7.77;100.00
64292;BME280;50628;51.008;13.658;2023-06-04T02:23:45;100163.97;;;7.68;100.00
64292;BME280;50628;51.008;13.658;2023-06-04T02:28:49;100157.34;;;7.64;100.00
64292;BME280;50628;51.008;13.658;2023-06-04T02:33:50;100153.72;;;7.52;100.00
64292;BME280;50628;51.008;13.658;2023-06-04T02:38:52;100166.50;;;7.55;100.00
64292;BME280;50628;51.008;13.658;2023-06-04T02:43:56;100164.16;;;7.51;100.00
64292;BME280;50628;51.008;13.658;2023-06-04T02:48:57;100167.78;;;7.63;100.00
64292;BME280;50628;51.008;13.658;2023-06-04T02:54:00;100166.94;;;7.62;100.00
64292;BME280;50628;51.008;13.658;2023-06-04T02:59:03;100170.22;;;7.51;100.00
64292;BME280;50628;51.008;13.658;2023-06-04T03:04:08;100164.38;;;7.48;100.00
64292;BME280;50628;51.008;13.658;2023-06-04T03:09:10;100176.22;;;7.37;100.00
64292;BME280;50628;51.008;13.658;2023-06-04T03:14:14;100177.41;;;7.32;100.00
64292;BME280;50628;51.008;13.658;2023-06-04T03:19:16;100179.00;;;7.49;100.00
64292;BME280;50628;51.008;13.658;2023-06-04T03:24:18;100177.78;;;7.40;100.00
64292;BME280;50628;51.008;13.658;2023-06-04T03:29:22;100176.22;;;7.37;100.00
64292;BME280;50628;51.008;13.658;2023-06-04T03:34:24;100181.38;;;7.37;100.00
64292;BME280;50628;51.008;13.658;2023-06-04T03:39:26;100184.25;;;7.19;100.00
64292;BME280;50628;51.008;13.658;2023-06-04T03:44:30;100190.44;;;7.30;100.00
64292;BME280;50628;51.008;13.658;2023-06-04T03:49:33;100191.00;;;7.35;100.00
64292;BME280;50628;51.008;13.658;2023-06-04T03:54:35;100195.94;;;7.26;100.00
64292;BME280;50628;51.008;13.658;2023-06-04T03:59:38;100182.50;;;7.48;100.00
64292;BME280;50628;51.008;13.658;2023-06-04T04:04:41;100191.47;;;7.42;100.00
64292;BME280;50628;51.008;13.658;2023-06-04T04:09:43;100200.91;;;7.57;100.00
64292;BME280;50628;51.008;13.658;2023-06-04T04:14:46;100195.06;;;7.68;100.00
64292;BME280;50628;51.008;13.658;2023-06-04T04:19:48;100192.53;;;7.81;100.00
64292;BME280;50628;51.008;13.658;2023-06-04T04:24:50;100199.88;;;7.89;100.00
64292;BME280;50628;51.008;13.658;2023-06-04T04:29:54;100200.91;;;7.86;100.00
64292;BME280;50628;51.008;13.658;2023-06-04T04:35:01;100200.50;;;7.92;100.00
64292;BME280;50628;51.008;13.658;2023-06-04T04:40:10;100193.59;;;8.20;100.00
64292;BME280;50628;51.008;13.658;2023-06-04T04:45:16;100203.47;;;8.42;100.00
64292;BME280;50628;51.008;13.658;2023-06-04T04:50:19;100204.31;;;8.55;100.00
64292;BME280;50628;51.008;13.658;2023-06-04T04:55:21;100201.25;;;8.76;100.00
64292;BME280;50628;51.008;13.658;2023-06-04T05:00:26;100194.84;;;9.07;100.00
64292;BME280;50628;51.008;13.658;2023-06-04T05:05:31;100194.69;;;9.23;100.00
64292;BME280;50628;51.008;13.658;2023-06-04T05:10:34;100206.50;;;9.40;100.00
64292;BME280;50628;51.008;13.658;2023-06-04T05:15:39;100198.88;;;9.75;100.00
64292;BME280;50628;51.008;13.658;2023-06-04T05:20:43;100189.63;;;10.08;100.00
64292;BME280;50628;51.008;13.658;2023-06-04T05:25:47;100193.41;;;10.04;100.00
64292;BME280;50628;51.008;13.658;2023-06-04T05:30:53;100203.44;;;10.45;100.00
64292;BME280;50628;51.008;13.658;2023-06-04T05:35:59;100202.38;;;10.72;100.00
64292;BME280;50628;51.008;13.658;2023-06-04T05:41:06;100206.06;;;11.27;100.00
64292;BME280;50628;51.008;13.658;2023-06-04T05:46:13;100208.53;;;11.29;100.00
64292;BME280;50628;51.008;13.658;2023-06-04T05:51:15;100205.84;;;11.53;100.00
64292;BME280;50628;51.008;13.658;2023-06-04T05:56:18;100197.88;;;11.77;97.61
64292;BME280;50628;51.008;13.658;2023-06-04T06:01:23;100210.31;;;12.07;91.78
64292;BME280;50628;51.008;13.658;2023-06-04T06:06:26;100206.63;;;12.21;86.96
64292;BME280;50628;51.008;13.658;2023-06-04T06:11:29;100210.31;;;12.50;85.33
64292;BME280;50628;51.008;13.658;2023-06-04T06:16:33;100213.47;;;12.86;84.04
64292;BME280;50628;51.008;13.658;2023-06-04T06:21:35;100208.69;;;13.12;84.65
64292;BME280;50628;51.008;13.658;2023-06-04T06:26:38;100211.94;;;13.47;83.11
64292;BME280;50628;51.008;13.658;2023-06-04T06:31:45;100214.72;;;13.55;84.20
64292;BME280;50628;51.008;13.658;2023-06-04T06:36:47;100223.78;;;13.81;84.34
64292;BME280;50628;51.008;13.658;2023-06-04T06:41:50;100211.59;;;14.01;81.33
64292;BME280;50628;51.008;13.658;2023-06-04T06:46:59;100223.56;;;13.94;83.34
64292;BME280;50628;51.008;13.658;2023-06-04T06:52:01;100224.97;;;14.18;82.86
64292;BME280;50628;51.008;13.658;2023-06-04T06:57:03;100224.38;;;14.55;81.12
64292;BME280;50628;51.008;13.658;2023-06-04T07:02:10;100227.47;;;14.48;79.03
64292;BME280;50628;51.008;13.658;2023-06-04T07:07:12;100232.72;;;14.39;77.90
64292;BME280;50628;51.008;13.658;2023-06-04T07:12:14;100236.88;;;14.41;75.84
64292;BME280;50628;51.008;13.658;2023-06-04T07:17:17;100233.06;;;14.84;74.02
64292;BME280;50628;51.008;13.658;2023-06-04T07:22:19;100232.28;;;15.31;72.07
64292;BME280;50628;51.008;13.658;2023-06-04T07:27:21;100220.75;;;15.51;69.65
64292;BME280;50628;51.008;13.658;2023-06-04T07:32:24;100227.75;;;15.13;68.27
64292;BME280;50628;51.008;13.658;2023-06-04T07:37:26;100228.47;;;15.53;65.53
64292;BME280;50628;51.008;13.658;2023-06-04T07:42:28;100227.16;;;15.76;63.14
64292;BME280;50628;51.008;13.658;2023-06-04T07:47:32;100222.94;;;15.93;61.34
64292;BME280;50628;51.008;13.658;2023-06-04T07:52:34;100219.25;;;15.86;60.38
64292;BME280;50628;51.008;13.658;2023-06-04T07:57:36;100224.09;;;15.81;59.51
64292;BME280;50628;51.008;13.658;2023-06-04T08:02:40;100212.28;;;15.95;57.98
64292;BME280;50628;51.008;13.658;2023-06-04T08:07:42;100215.03;;;16.21;58.22
64292;BME280;50628;51.008;13.658;2023-06-04T08:12:43;100214.59;;;16.43;57.71
64292;BME280;50628;51.008;13.658;2023-06-04T08:17:47;100215.19;;;16.73;56.46
64292;BME280;50628;51.008;13.658;2023-06-04T08:22:49;100226.22;;;16.95;55.30
64292;BME280;50628;51.008;13.658;2023-06-04T08:27:50;100212.31;;;17.28;53.50
64292;BME280;50628;51.008;13.658;2023-06-04T08:32:54;100210.03;;;17.60;54.09
64292;BME280;50628;51.008;13.658;2023-06-04T08:37:56;100215.38;;;17.42;53.77
64292;BME280;50628;51.008;13.658;2023-06-04T08:43:00;100208.25;;;17.34;54.01
64292;BME280;50628;51.008;13.658;2023-06-04T08:48:04;100212.53;;;17.69;52.08
64292;BME280;50628;51.008;13.658;2023-06-04T08:53:14;100213.75;;;17.49;52.91
64292;BME280;50628;51.008;13.658;2023-06-04T08:58:18;100207.09;;;18.13;49.87
64292;BME280;50628;51.008;13.658;2023-06-04T09:03:22;100187.56;;;18.81;49.58
64292;BME280;50628;51.008;13.658;2023-06-04T09:08:26;100202.25;;;17.84;50.38
64292;BME280;50628;51.008;13.658;2023-06-04T09:13:31;100195.59;;;18.39;48.35
64292;BME280;50628;51.008;13.658;2023-06-04T09:18:36;100207.00;;;18.64;46.30
64292;BME280;50628;51.008;13.658;2023-06-04T09:23:44;100207.78;;;18.32;44.92
64292;BME280;50628;51.008;13.658;2023-06-04T09:28:46;100208.16;;;18.62;43.19
64292;BME280;50628;51.008;13.658;2023-06-04T09:33:49;100199.69;;;19.32;42.00
64292;BME280;50628;51.008;13.658;2023-06-04T09:38:51;100201.63;;;19.46;42.94
64292;BME280;50628;51.008;13.658;2023-06-04T09:43:59;100192.41;;;19.42;43.11
64292;BME280;50628;51.008;13.658;2023-06-04T09:49:05;100187.38;;;18.99;43.03
64292;BME280;50628;51.008;13.658;2023-06-04T09:54:07;100190.97;;;19.15;42.75
64292;BME280;50628;51.008;13.658;2023-06-04T09:59:09;100187.88;;;19.11;42.36
64292;BME280;50628;51.008;13.658;2023-06-04T10:04:13;100183.44;;;18.95;42.29
64292;BME280;50628;51.008;13.658;2023-06-04T10:09:18;100181.19;;;19.40;41.75
64292;BME280;50628;51.008;13.658;2023-06-04T10:14:23;100182.91;;;20.03;41.57
64292;BME280;50628;51.008;13.658;2023-06-04T10:19:30;100174.41;;;20.39;39.42
64292;BME280;50628;51.008;13.658;2023-06-04T10:24:33;100173.63;;;20.53;37.78
64292;BME280;50628;51.008;13.658;2023-06-04T10:29:35;100170.91;;;20.85;37.81
64292;BME280;50628;51.008;13.658;2023-06-04T10:34:39;100176.56;;;20.82;37.85
64292;BME280;50628;51.008;13.658;2023-06-04T10:39:51;100161.13;;;20.47;38.76
64292;BME280;50628;51.008;13.658;2023-06-04T10:44:54;100170.75;;;21.31;39.23
64292;BME280;50628;51.008;13.658;2023-06-04T10:50:08;100161.09;;;21.89;37.35
64292;BME280;50628;51.008;13.658;2023-06-04T10:55:10;100168.53;;;21.79;36.00
64292;BME280;50628;51.008;13.658;2023-06-04T11:00:13;100169.06;;;21.89;36.19
64292;BME280;50628;51.008;13.658;2023-06-04T11:05:18;100161.06;;;22.40;33.80
64292;BME280;50628;51.008;13.658;2023-06-04T11:10:31;100159.56;;;22.87;34.74
64292;BME280;50628;51.008;13.658;2023-06-04T11:15:38;100156.41;;;23.33;32.35
64292;BME280;50628;51.008;13.658;2023-06-04T11:20:43;100152.47;;;22.95;32.69
64292;BME280;50628;51.008;13.658;2023-06-04T11:25:45;100159.56;;;22.59;32.33
64292;BME280;50628;51.008;13.658;2023-06-04T11:30:56;100154.22;;;23.44;31.19
64292;BME280;50628;51.008;13.658;2023-06-04T11:35:59;100144.34;;;23.38;32.46
64292;BME280;50628;51.008;13.658;2023-06-04T11:41:02;100157.84;;;22.23;32.38
64292;BME280;50628;51.008;13.658;2023-06-04T11:46:06;100155.25;;;23.56;31.39
64292;BME280;50628;51.008;13.658;2023-06-04T11:51:10;100161.88;;;24.68;30.11
64292;BME280;50628;51.008;13.658;2023-06-04T11:56:12;100149.38;;;24.75;28.95
64292;BME280;50628;51.008;13.658;2023-06-04T12:01:14;100146.53;;;24.70;30.03
64292;BME280;50628;51.008;13.658;2023-06-04T12:06:18;100148.50;;;25.08;29.11
64292;BME280;50628;51.008;13.658;2023-06-04T12:11:28;100144.31;;;23.72;30.05
64292;BME280;50628;51.008;13.658;2023-06-04T12:16:31;100141.97;;;24.84;29.63
64292;BME280;50628;51.008;13.658;2023-06-04T12:21:35;100134.78;;;24.05;30.88
64292;BME280;50628;51.008;13.658;2023-06-04T12:26:38;100139.16;;;23.71;30.98
64292;BME280;50628;51.008;13.658;2023-06-04T12:31:42;100142.41;;;25.53;29.73
64292;BME280;50628;51.008;13.658;2023-06-04T12:36:47;100133.41;;;25.54;30.37
64292;BME280;50628;51.008;13.658;2023-06-04T12:41:49;100137.94;;;25.53;29.46
64292;BME280;50628;51.008;13.658;2023-06-04T12:46:50;100126.34;;;26.36;28.71
64292;BME280;50628;51.008;13.658;2023-06-04T12:51:54;100118.41;;;26.54;28.17
64292;BME280;50628;51.008;13.658;2023-06-04T12:56:56;100120.09;;;25.92;29.89
64292;BME280;50628;51.008;13.658;2023-06-04T13:01:58;100118.56;;;26.34;29.37
64292;BME280;50628;51.008;13.658;2023-06-04T13:07:01;100127.97;;;25.74;28.83
64292;BME280;50628;51.008;13.658;2023-06-04T13:12:04;100126.72;;;26.40;27.34
64292;BME280;50628;51.008;13.658;2023-06-04T13:17:06;100115.31;;;26.76;27.85
64292;BME280;50628;51.008;13.658;2023-06-04T13:22:09;100125.00;;;25.95;28.17
64292;BME280;50628;51.008;13.658;2023-06-04T13:27:11;100109.56;;;26.79;27.15
64292;BME280;50628;51.008;13.658;2023-06-04T13:32:13;100105.50;;;26.51;28.01
64292;BME280;50628;51.008;13.658;2023-06-04T13:37:16;100110.03;;;26.26;28.59
64292;BME280;50628;51.008;13.658;2023-06-04T13:42:18;100112.00;;;26.81;27.69
64292;BME280;50628;51.008;13.658;2023-06-04T13:47:20;100105.41;;;27.38;26.50
64292;BME280;50628;51.008;13.658;2023-06-04T13:52:23;100098.84;;;26.36;27.30
64292;BME280;50628;51.008;13.658;2023-06-04T13:57:26;100098.28;;;26.02;27.32
64292;BME280;50628;51.008;13.658;2023-06-04T14:02:28;100096.41;;;27.81;25.91
64292;BME280;50628;51.008;13.658;2023-06-04T14:07:32;100091.25;;;28.10;25.37
64292;BME280;50628;51.008;13.658;2023-06-04T14:12:33;100088.72;;;28.74;24.66
64292;BME280;50628;51.008;13.658;2023-06-04T14:17:35;100080.63;;;27.92;26.78
64292;BME280;50628;51.008;13.658;2023-06-04T14:22:39;100094.41;;;26.48;27.37
64292;BME280;50628;51.008;13.658;2023-06-04T14:27:40;100082.41;;;27.01;26.77
64292;BME280;50628;51.008;13.658;2023-06-04T14:32:42;100081.09;;;27.89;25.91
64292;BME280;50628;51.008;13.658;2023-06-04T14:37:46;100070.25;;;26.86;26.58
64292;BME280;50628;51.008;13.658;2023-06-04T14:42:49;100066.63;;;27.78;25.59
64292;BME280;50628;51.008;13.658;2023-06-04T14:47:50;100064.38;;;28.29;25.83
64292;BME280;50628;51.008;13.658;2023-06-04T14:52:54;100062.63;;;28.11;25.94
64292;BME280;50628;51.008;13.658;2023-06-04T14:57:55;100061.91;;;27.61;24.77
64292;BME280;50628;51.008;13.658;2023-06-04T15:02:58;100060.50;;;26.05;25.36
64292;BME280;50628;51.008;13.658;2023-06-04T15:08:02;100057.34;;;25.89;24.61
64292;BME280;50628;51.008;13.658;2023-06-04T15:13:04;100051.88;;;27.45;23.71
64292;BME280;50628;51.008;13.658;2023-06-04T15:18:06;100049.59;;;27.60;23.07
64292;BME280;50628;51.008;13.658;2023-06-04T15:23:10;100061.34;;;27.59;23.13
64292;BME280;50628;51.008;13.658;2023-06-04T15:28:11;100055.03;;;27.84;23.41
64292;BME280;50628;51.008;13.658;2023-06-04T15:33:13;100063.28;;;25.92;23.94
64292;BME280;50628;51.008;13.658;2023-06-04T15:38:18;100062.97;;;27.30;21.71
64292;BME280;50628;51.008;13.658;2023-06-04T15:43:20;100055.53;;;27.14;22.30
64292;BME280;50628;51.008;13.658;2023-06-04T15:48:22;100058.53;;;27.24;22.74
64292;BME280;50628;51.008;13.658;2023-06-04T15:53:25;100062.66;;;26.83;21.86
64292;BME280;50628;51.008;13.658;2023-06-04T15:58:27;100057.34;;;26.65;23.43
64292;BME280;50628;51.008;13.658;2023-06-04T16:03:28;100051.72;;;26.91;21.88
64292;BME280;50628;51.008;13.658;2023-06-04T16:08:32;100057.09;;;27.40;21.74
64292;BME280;50628;51.008;13.658;2023-06-04T16:13:33;100054.56;;;26.53;23.65
64292;BME280;50628;51.008;13.658;2023-06-04T16:18:37;100055.88;;;25.94;25.26
64292;BME280;50628;51.008;13.658;2023-06-04T16:23:41;100055.31;;;25.85;24.67
64292;BME280;50628;51.008;13.658;2023-06-04T16:28:44;100047.41;;;25.33;25.31
64292;BME280;50628;51.008;13.658;2023-06-04T16:33:46;100055.59;;;24.67;27.67
64292;BME280;50628;51.008;13.658;2023-06-04T16:38:49;100056.59;;;24.86;28.74
64292;BME280;50628;51.008;13.658;2023-06-04T16:43:52;100050.03;;;24.88;26.10
64292;BME280;50628;51.008;13.658;2023-06-04T16:48:53;100042.72;;;24.64;27.20
64292;BME280;50628;51.008;13.658;2023-06-04T16:53:57;100044.41;;;24.25;27.76
64292;BME280;50628;51.008;13.658;2023-06-04T16:58:58;100043.59;;;24.04;29.02
64292;BME280;50628;51.008;13.658;2023-06-04T17:04:00;100038.97;;;23.45;29.50
64292;BME280;50628;51.008;13.658;2023-06-04T17:09:03;100038.84;;;23.80;28.57
64292;BME280;50628;51.008;13.658;2023-06-04T17:14:05;100038.84;;;23.73;29.36
64292;BME280;50628;51.008;13.658;2023-06-04T17:19:07;100039.38;;;23.55;30.01
64292;BME280;50628;51.008;13.658;2023-06-04T17:24:11;100043.41;;;23.24;30.44
64292;BME280;50628;51.008;13.658;2023-06-04T17:29:13;100041.00;;;23.36;29.54
64292;BME280;50628;51.008;13.658;2023-06-04T17:34:14;100049.03;;;23.08;29.99
64292;BME280;50628;51.008;13.658;2023-06-04T17:39:18;100046.88;;;22.83;30.71
64292;BME280;50628;51.008;13.658;2023-06-04T17:44:19;100045.41;;;22.81;30.85
64292;BME280;50628;51.008;13.658;2023-06-04T17:49:21;100050.69;;;22.74;31.75
64292;BME280;50628;51.008;13.658;2023-06-04T17:54:25;100047.47;;;22.85;32.22
64292;BME280;50628;51.008;13.658;2023-06-04T17:59:27;100039.03;;;22.75;32.54
64292;BME280;50628;51.008;13.658;2023-06-04T18:04:28;100038.97;;;22.97;32.50
64292;BME280;50628;51.008;13.658;2023-06-04T18:09:32;100041.28;;;22.72;33.46
64292;BME280;50628;51.008;13.658;2023-06-04T18:14:33;100053.38;;;22.46;34.93
64292;BME280;50628;51.008;13.658;2023-06-04T18:19:35;100060.72;;;22.22;36.41
64292;BME280;50628;51.008;13.658;2023-06-04T18:24:39;100053.41;;;22.03;36.05
64292;BME280;50628;51.008;13.658;2023-06-04T18:29:40;100065.47;;;21.84;38.20
64292;BME280;50628;51.008;13.658;2023-06-04T18:34:42;100068.84;;;21.56;39.06
64292;BME280;50628;51.008;13.658;2023-06-04T18:39:46;100076.38;;;21.23;39.94
64292;BME280;50628;51.008;13.658;2023-06-04T18:44:48;100074.88;;;20.99;41.46
64292;BME280;50628;51.008;13.658;2023-06-04T18:49:50;100071.84;;;20.87;41.33
64292;BME280;50628;51.008;13.658;2023-06-04T18:54:53;100079.78;;;21.02;40.88
64292;BME280;50628;51.008;13.658;2023-06-04T18:59:55;100079.22;;;20.77;41.81
64292;BME280;50628;51.008;13.658;2023-06-04T19:04:57;100088.56;;;20.50;41.35
64292;BME280;50628;51.008;13.658;2023-06-04T19:10:00;100091.16;;;20.35;43.28
64292;BME280;50628;51.008;13.658;2023-06-04T19:15:06;100090.78;;;20.00;43.46
64292;BME280;50628;51.008;13.658;2023-06-04T19:20:09;100100.06;;;19.65;44.96
64292;BME280;50628;51.008;13.658;2023-06-04T19:25:29;100108.03;;;19.57;44.55
64292;BME280;50628;51.008;13.658;2023-06-04T19:30:31;100104.81;;;19.38;46.59
64292;BME280;50628;51.008;13.658;2023-06-04T19:35:33;100110.66;;;19.17;47.17
64292;BME280;50628;51.008;13.658;2023-06-04T19:40:49;100116.53;;;18.88;48.11
64292;BME280;50628;51.008;13.658;2023-06-04T19:45:50;100123.13;;;18.59;49.91
64292;BME280;50628;51.008;13.658;2023-06-04T19:51:06;100129.56;;;18.32;50.94
64292;BME280;50628;51.008;13.658;2023-06-04T19:56:13;100138.94;;;18.19;52.62
64292;BME280;50628;51.008;13.658;2023-06-04T20:01:18;100137.94;;;18.03;53.83
64292;BME280;50628;51.008;13.658;2023-06-04T20:06:20;100146.28;;;17.82;53.28
64292;BME280;50628;51.008;13.658;2023-06-04T20:11:23;100151.19;;;17.77;54.22
64292;BME280;50628;51.008;13.658;2023-06-04T20:16:34;100149.47;;;17.51;55.17
64292;BME280;50628;51.008;13.658;2023-06-04T20:21:39;100158.03;;;17.19;58.20
64292;BME280;50628;51.008;13.658;2023-06-04T20:26:42;100164.66;;;16.79;61.68
64292;BME280;50628;51.008;13.658;2023-06-04T20:31:44;100169.72;;;16.37;63.83
64292;BME280;50628;51.008;13.658;2023-06-04T20:36:47;100174.97;;;16.37;63.59
64292;BME280;50628;51.008;13.658;2023-06-04T20:41:50;100174.28;;;16.35;63.21
64292;BME280;50628;51.008;13.658;2023-06-04T20:46:52;100175.22;;;16.26;64.65
64292;BME280;50628;51.008;13.658;2023-06-04T20:51:54;100183.50;;;16.03;66.46
64292;BME280;50628;51.008;13.658;2023-06-04T20:56:57;100181.50;;;15.87;67.49
64292;BME280;50628;51.008;13.658;2023-06-04T21:01:59;100183.38;;;15.77;67.11
64292;BME280;50628;51.008;13.658;2023-06-04T21:07:01;100189.44;;;15.50;68.37
64292;BME280;50628;51.008;13.658;2023-06-04T21:12:05;100197.03;;;15.43;69.81
64292;BME280;50628;51.008;13.658;2023-06-04T21:17:07;100200.69;;;15.23;71.76
64292;BME280;50628;51.008;13.658;2023-06-04T21:22:09;100203.31;;;15.23;73.34
64292;BME280;50628;51.008;13.658;2023-06-04T21:27:12;100213.28;;;15.09;73.83
64292;BME280;50628;51.008;13.658;2023-06-04T21:32:14;100212.34;;;14.91;75.93
64292;BME280;50628;51.008;13.658;2023-06-04T21:37:16;100203.06;;;15.06;76.62
64292;BME280;50628;51.008;13.658;2023-06-04T21:42:19;100204.50;;;14.71;77.18
64292;BME280;50628;51.008;13.658;2023-06-04T21:47:21;100208.25;;;14.59;78.85
64292;BME280;50628;51.008;13.658;2023-06-04T21:52:22;100203.91;;;14.39;78.88
64292;BME280;50628;51.008;13.658;2023-06-04T21:57:26;100215.06;;;14.21;80.41
64292;BME280;50628;51.008;13.658;2023-06-04T22:02:28;100214.22;;;14.11;80.20
64292;BME280;50628;51.008;13.658;2023-06-04T22:07:29;100216.28;;;14.07;81.65
64292;BME280;50628;51.008;13.658;2023-06-04T22:12:33;100215.53;;;13.86;82.83
64292;BME280;50628;51.008;13.658;2023-06-04T22:17:35;100224.91;;;13.58;84.49
64292;BME280;50628;51.008;13.658;2023-06-04T22:22:36;100225.88;;;13.57;85.47
64292;BME280;50628;51.008;13.658;2023-06-04T22:27:40;100216.47;;;13.45;86.51
64292;BME280;50628;51.008;13.658;2023-06-04T22:32:42;100217.75;;;13.08;89.53
64292;BME280;50628;51.008;13.658;2023-06-04T22:37:46;100227.88;;;13.02;90.04
64292;BME280;50628;51.008;13.658;2023-06-04T22:42:49;100220.94;;;12.91;92.47
64292;BME280;50628;51.008;13.658;2023-06-04T22:47:51;100211.44;;;12.69;94.34
64292;BME280;50628;51.008;13.658;2023-06-04T22:52:53;100214.38;;;12.75;94.72
64292;BME280;50628;51.008;13.658;2023-06-04T22:57:56;100219.69;;;12.53;96.91
64292;BME280;50628;51.008;13.658;2023-06-04T23:02:58;100209.38;;;12.51;96.48
64292;BME280;50628;51.008;13.658;2023-06-04T23:08:00;100208.34;;;12.43;97.55
64292;BME280;50628;51.008;13.658;2023-06-04T23:13:03;100211.00;;;12.20;99.92
64292;BME280;50628;51.008;13.658;2023-06-04T23:18:05;100205.09;;;12.18;100.00
64292;BME280;50628;51.008;13.658;2023-06-04T23:23:07;100204.50;;;12.15;100.00
64292;BME280;50628;51.008;13.658;2023-06-04T23:28:10;100213.72;;;12.19;100.00
64292;BME280;50628;51.008;13.658;2023-06-04T23:33:12;100210.91;;;11.99;100.00
64292;BME280;50628;51.008;13.658;2023-06-04T23:38:14;100199.78;;;11.75;100.00
64292;BME280;50628;51.008;13.658;2023-06-04T23:43:17;100210.56;;;11.59;100.00
64292;BME280;50628;51.008;13.658;2023-06-04T23:48:19;100205.84;;;11.53;100.00
64292;BME280;50628;51.008;13.658;2023-06-04T23:53:21;100204.66;;;11.45;100.00
64292;BME280;50628;51.008;13.658;2023-06-04T23:58:24;100201.44;;;11.53;100.00
